createdAt,value
2022-10-11T00:03:46.878Z,8.45
2022-10-11T00:08:43.873Z,8.15
2022-10-11T00:13:41.100Z,11.63
2022-10-11T00:18:38.890Z,12.32
2022-10-11T00:23:37.486Z,10.07
2022-10-11T00:28:36.061Z,10.82
2022-10-11T00:33:34.175Z,10.88
2022-10-11T00:38:37.101Z,10.10
2022-10-11T00:43:46.050Z,8.80
2022-10-11T00:48:46.437Z,11.65
2022-10-11T00:53:46.270Z,12.50
2022-10-11T00:58:49.351Z,11.00
2022-10-11T01:04:07.335Z,11.02
2022-10-11T01:09:31.542Z,8.48
2022-10-11T01:15:10.931Z,9.88
2022-10-11T01:20:36.318Z,10.45
2022-10-11T01:25:40.444Z,9.07
2022-10-11T01:31:10.626Z,8.10
2022-10-11T01:36:47.256Z,9.65
2022-10-11T01:41:49.147Z,7.50
2022-10-11T01:46:47.797Z,15.52
2022-10-11T01:51:49.061Z,13.20
2022-10-11T01:57:01.041Z,9.93
2022-10-11T02:02:10.797Z,7.22
2022-10-11T02:07:20.890Z,11.68
2022-10-11T02:12:24.589Z,11.43
2022-10-11T02:17:33.343Z,10.82
2022-10-11T02:22:34.648Z,6.35
2022-10-11T02:27:37.286Z,6.72
2022-10-11T02:32:40.102Z,8.98
2022-10-11T02:37:45.274Z,8.50
2022-10-11T02:42:45.742Z,9.50
2022-10-11T02:47:46.199Z,6.10
2022-10-11T02:52:47.346Z,5.95
2022-10-11T02:57:47.243Z,10.40
2022-10-11T03:02:45.243Z,7.35
2022-10-11T03:07:42.428Z,7.88
2022-10-11T03:12:41.288Z,13.82
2022-10-11T03:17:38.280Z,9.82
2022-10-11T03:22:36.351Z,9.57
2022-10-11T03:27:42.073Z,13.27
2022-10-11T03:32:47.065Z,12.65
2022-10-11T03:37:45.363Z,8.98
2022-10-11T03:42:51.020Z,11.10
2022-10-11T03:47:51.086Z,8.10
2022-10-11T03:52:50.400Z,11.18
2022-10-11T03:57:47.491Z,9.52
2022-10-11T04:03:06.582Z,9.88
2022-10-11T04:08:21.534Z,10.80
2022-10-11T04:13:19.843Z,16.37
2022-10-11T04:18:30.990Z,10.85
2022-10-11T04:23:33.867Z,11.90
2022-10-11T04:28:36.496Z,12.07
2022-10-11T04:33:37.160Z,12.00
2022-10-11T04:44:02.190Z,16.17
2022-10-11T04:50:07.641Z,13.93
2022-10-11T04:55:08.619Z,11.88
2022-10-11T05:00:06.575Z,19.33
2022-10-11T05:05:08.568Z,23.58
2022-10-11T05:10:14.017Z,19.63
2022-10-11T05:15:22.224Z,22.10
2022-10-11T05:20:25.855Z,15.65
2022-10-11T05:25:27.218Z,21.88
2022-10-11T05:30:27.062Z,27.80
2022-10-11T05:35:24.322Z,22.70
2022-10-11T05:40:27.720Z,26.50
2022-10-11T05:45:54.343Z,29.15
2022-10-11T05:51:12.399Z,14.38
2022-10-11T05:56:41.673Z,14.40
2022-10-11T06:01:43.390Z,12.88
2022-10-11T06:28:13.880Z,15.35
2022-10-11T06:33:11.235Z,14.60
2022-10-11T06:43:32.474Z,11.75
2022-10-11T06:48:53.500Z,18.90
2022-10-11T06:59:24.960Z,11.55
2022-10-11T07:04:29.788Z,12.40
2022-10-11T07:09:30.493Z,9.02
2022-10-11T07:14:32.034Z,12.38
2022-10-11T07:19:57.830Z,11.90
2022-10-11T07:24:54.995Z,15.10
2022-10-11T07:29:55.722Z,11.77
2022-10-11T07:35:11.178Z,9.10
2022-10-11T07:40:16.606Z,19.20
2022-10-11T07:45:17.619Z,10.05
2022-10-11T07:50:51.093Z,9.75
2022-10-11T07:56:02.077Z,18.15
2022-10-11T08:01:18.362Z,17.55
2022-10-11T08:06:26.766Z,13.70
2022-10-11T08:11:25.464Z,21.02
2022-10-11T08:16:25.813Z,14.40
2022-10-11T08:21:32.616Z,11.20
2022-10-11T08:26:53.768Z,15.63
2022-10-11T08:31:51.449Z,10.48
2022-10-11T08:36:48.476Z,9.70
2022-10-11T08:41:51.337Z,13.52
2022-10-11T08:47:00.548Z,11.57
2022-10-11T08:52:36.263Z,11.32
2022-10-11T08:57:38.948Z,14.20
2022-10-11T09:03:29.569Z,14.13
2022-10-11T09:09:02.529Z,16.60
2022-10-11T09:14:29.868Z,9.77
2022-10-11T09:19:53.686Z,14.73
2022-10-11T09:25:07.600Z,15.82
2022-10-11T09:30:12.287Z,12.38
2022-10-11T09:35:43.455Z,11.40
2022-10-11T09:41:05.535Z,12.13
2022-10-11T09:46:03.194Z,8.63
2022-10-11T09:51:19.049Z,11.15
2022-10-11T09:56:23.675Z,11.18
2022-10-11T10:01:29.326Z,13.27
2022-10-11T10:07:00.278Z,13.25
2022-10-11T10:12:10.950Z,12.52
2022-10-11T10:17:16.926Z,7.82
2022-10-11T10:22:19.993Z,12.05
2022-10-11T10:27:24.039Z,12.35
2022-10-11T10:32:28.130Z,12.87
2022-10-11T10:38:30.722Z,9.35
2022-10-11T10:49:53.088Z,8.75
2022-10-11T10:54:58.345Z,13.40
2022-10-11T11:00:14.054Z,8.13
2022-10-11T11:05:26.131Z,8.30
2022-10-11T11:10:35.219Z,7.35
2022-10-11T11:15:39.356Z,8.95
2022-10-11T11:21:22.151Z,5.77
2022-10-11T11:32:28.662Z,12.30
2022-10-11T11:37:34.195Z,9.55
2022-10-11T11:42:41.929Z,8.77
2022-10-11T11:48:04.355Z,7.40
2022-10-11T11:53:09.315Z,9.63
2022-10-11T12:03:17.813Z,10.60
2022-10-11T12:08:26.907Z,9.00
2022-10-11T12:13:32.267Z,8.43
2022-10-11T12:18:37.186Z,10.45
2022-10-11T12:23:46.543Z,10.18
2022-10-11T12:29:45.764Z,10.20
2022-10-11T12:34:47.867Z,11.98
2022-10-11T12:40:29.798Z,11.77
2022-10-11T12:46:09.027Z,12.45
2022-10-11T12:51:44.443Z,9.05
2022-10-11T12:57:46.293Z,7.72
2022-10-11T13:03:02.203Z,10.38
2022-10-11T13:08:41.861Z,9.10
2022-10-11T13:14:08.518Z,10.40
2022-10-11T13:19:51.186Z,10.05
2022-10-11T13:24:49.879Z,14.25
2022-10-11T13:29:50.697Z,11.18
2022-10-11T13:39:59.948Z,15.52
2022-10-11T13:45:30.087Z,14.80
2022-10-11T13:51:21.906Z,13.63
2022-10-11T13:56:20.143Z,12.98
2022-10-11T14:01:48.903Z,10.45
2022-10-11T14:06:52.012Z,15.82
2022-10-11T14:11:50.572Z,19.10
2022-10-11T14:17:32.222Z,19.38
2022-10-11T14:23:21.271Z,16.50
2022-10-11T14:28:44.556Z,17.83
2022-10-11T14:34:03.350Z,17.67
2022-10-11T14:39:00.434Z,20.52
2022-10-11T14:43:58.365Z,21.85
2022-10-11T14:48:56.725Z,18.85
2022-10-11T14:53:58.912Z,18.27
2022-10-11T14:59:01.099Z,36.25
2022-10-11T15:04:51.096Z,18.23
2022-10-11T15:09:55.960Z,18.02
2022-10-11T15:15:40.449Z,16.38
2022-10-11T15:20:44.470Z,28.52
2022-10-11T15:26:40.874Z,20.13
2022-10-11T15:36:51.096Z,15.35
2022-10-11T15:41:48.365Z,16.83
2022-10-11T15:47:38.409Z,22.83
2022-10-11T15:58:44.237Z,29.27
2022-10-11T16:05:44.838Z,20.55
2022-10-11T16:09:56.622Z,21.73
2022-10-11T16:15:01.329Z,14.75
2022-10-11T16:20:15.408Z,13.57
2022-10-11T16:25:46.163Z,16.45
2022-10-11T16:30:50.993Z,56.40
2022-10-11T16:35:50.723Z,23.48
2022-10-11T16:41:29.183Z,16.27
2022-10-11T16:46:26.898Z,16.50
2022-10-11T16:51:34.110Z,18.35
2022-10-11T16:57:10.882Z,22.52
2022-10-11T17:02:16.562Z,20.52
2022-10-11T17:24:55.386Z,59.85
2022-10-11T17:30:01.919Z,22.02
2022-10-11T17:35:46.991Z,28.92
2022-10-11T17:41:00.677Z,28.73
2022-10-11T17:45:59.685Z,24.08
2022-10-11T17:52:19.596Z,21.27
2022-10-11T17:57:35.262Z,21.00
2022-10-11T18:02:57.223Z,25.80
2022-10-11T18:07:55.211Z,18.23
2022-10-11T18:13:23.391Z,15.55
2022-10-11T18:18:23.164Z,17.77
2022-10-11T18:23:47.304Z,29.75
2022-10-11T18:28:47.013Z,22.83
2022-10-11T18:33:45.888Z,28.35
2022-10-11T18:38:46.441Z,19.80
2022-10-11T18:43:59.628Z,24.10
2022-10-11T18:49:03.055Z,21.92
2022-10-11T18:54:01.242Z,22.40
2022-10-11T18:59:19.540Z,18.85
2022-10-11T19:04:25.268Z,23.33
2022-10-11T19:09:40.609Z,18.73
2022-10-11T19:14:53.529Z,26.92
2022-10-11T19:20:00.625Z,25.33
2022-10-11T19:25:04.214Z,29.30
2022-10-11T19:30:07.964Z,26.75
2022-10-11T19:35:15.266Z,32.78
2022-10-11T19:40:21.351Z,32.75
2022-10-11T19:45:21.105Z,30.50
2022-10-11T19:50:18.340Z,26.52
2022-10-11T19:55:17.712Z,28.30
2022-10-11T20:00:17.229Z,32.75
2022-10-11T20:05:31.230Z,20.67
2022-10-11T20:10:35.094Z,22.50
2022-10-11T20:15:42.939Z,24.08
2022-10-11T20:20:57.551Z,7.68
2022-10-11T20:26:07.227Z,15.27
2022-10-11T20:31:11.096Z,11.45
2022-10-11T20:36:12.609Z,11.35
2022-10-11T20:41:11.789Z,11.00
2022-10-11T20:46:11.482Z,9.55
2022-10-11T20:51:14.497Z,11.02
2022-10-11T20:56:13.549Z,7.55
2022-10-11T21:01:14.666Z,8.35
2022-10-11T21:06:24.335Z,9.48
2022-10-11T21:11:23.334Z,8.57
2022-10-11T21:16:24.236Z,6.63
2022-10-11T21:21:24.155Z,5.00
2022-10-11T21:26:24.795Z,6.20
2022-10-11T21:31:22.797Z,6.43
2022-10-11T21:36:22.233Z,4.55
2022-10-11T21:41:24.867Z,5.53
2022-10-11T21:46:32.531Z,4.30
2022-10-11T21:51:35.582Z,4.40
2022-10-11T21:56:32.808Z,4.20
2022-10-11T22:01:30.178Z,8.18
2022-10-11T22:06:27.413Z,6.78
2022-10-11T22:11:25.497Z,4.70
2022-10-11T22:16:23.458Z,8.85
2022-10-11T22:21:24.160Z,11.10
2022-10-11T22:26:30.838Z,6.10
2022-10-11T22:31:41.947Z,6.32
2022-10-11T22:36:41.943Z,3.53
2022-10-11T22:42:08.804Z,7.55
2022-10-11T22:47:16.942Z,5.75
2022-10-11T22:52:17.272Z,4.07
2022-10-11T22:57:14.450Z,4.07
2022-10-11T23:02:12.733Z,5.32
2022-10-11T23:07:09.892Z,6.55
2022-10-11T23:12:07.999Z,4.65
2022-10-11T23:17:10.699Z,4.45
2022-10-11T23:22:27.554Z,4.80
2022-10-11T23:27:41.546Z,3.78
2022-10-11T23:32:43.904Z,4.28
2022-10-11T23:37:51.758Z,7.00
2022-10-11T23:43:04.902Z,8.52
2022-10-11T23:48:05.386Z,8.35
2022-10-11T23:53:11.729Z,8.75
2022-10-11T23:58:09.411Z,9.57
